KFLD/FLD METAR and TAF weather

Enter ICAO airport designator
Station Type Date Time Source
KFLD METAR 2022/06/27 08:53 UTC NOAA

KFLD 270853Z AUTO 28006KT 10SM CLR 14/06 A3015 RMK AO2 SLP209 T01390056 51004


Station Type Date Time Source
KFLD Decoded METAR 2022/06/27 08:53 UTC NOAA

FOND DU LAC COUNTY AIRPORT, WI, United States (KFLD) 43-46N 88-29W 240M
Jun 27, 2022 - 04:53 AM EDT / 2022.06.27 0853 UTC
Wind: from the W (280 degrees) at 7 MPH (6 KT):0
Visibility: 10 mile(s):0
Sky conditions: clear
Temperature: 57.0 F (13.9 C)
Dew Point: 42.1 F (5.6 C)
Relative Humidity: 57%
Pressure (altimeter): 30.15 in. Hg (1020 hPa)
Pressure tendency: 0.01 inches (0.4 hPa) higher than three hours ago
ob: KFLD 270853Z AUTO 28006KT 10SM CLR 14/06 A3015 RMK AO2 SLP209 T01390056 51004
cycle: 9

Station Type Date Time Source
KFLD TAF UTC NOAA

Error!

Example: see airport list